Terminal Aerodrome Forecast
Issued by NWS

Current Version | Previous Version | Text Only | Print | Product List | Glossary Off
Versions: 1 2 3 4 5 6 7 8 9 10 11 12 13 14 15 16 17

066
FTUS41 KPBZ 031004 AAA
TAFMGW
TAF AMD
KMGW 031004Z 0310/0406 17012G25KT P6SM -RA OVC040 WS020/18050KT
      TEMPO 0312/0313 VRB15G28KT 2SM SHRA BR BKN015
     FM031400 19012G22KT P6SM -SHRA BKN035 WS020/20040KT
     FM031900 23012G22KT P6SM BKN040
     FM040100 27012KT P6SM SCT040=

USA.gov is the U.S. government's official web portal to all federal, state and local government web resources and services.